sensor_id;sensor_type;location;lat;lon;timestamp;temperature;humidity
48912;DHT22;34722;52.108;5.044;2023-04-16T00:18:11;8.50;99.90
48912;DHT22;34722;52.108;5.044;2023-04-16T00:30:05;8.50;99.90
48912;DHT22;34722;52.108;5.044;2023-04-16T00:55:27;8.60;99.90
48912;DHT22;34722;52.108;5.044;2023-04-16T01:04:38;8.50;99.90
48912;DHT22;34722;52.108;5.044;2023-04-16T01:07:06;8.50;99.90
48912;DHT22;34722;52.108;5.044;2023-04-16T01:09:32;8.50;99.90
48912;DHT22;34722;52.108;5.044;2023-04-16T01:11:58;8.50;99.90
48912;DHT22;34722;52.108;5.044;2023-04-16T01:17:49;8.50;99.90
48912;DHT22;34722;52.108;5.044;2023-04-16T01:20:21;8.60;99.90
48912;DHT22;34722;52.108;5.044;2023-04-16T01:31:26;8.50;99.90
48912;DHT22;34722;52.108;5.044;2023-04-16T01:33:52;8.50;99.90
48912;DHT22;34722;52.108;5.044;2023-04-16T01:36:18;8.50;99.90
48912;DHT22;34722;52.108;5.044;2023-04-16T01:38:43;8.50;99.90
48912;DHT22;34722;52.108;5.044;2023-04-16T01:41:24;8.50;99.90
48912;DHT22;34722;52.108;5.044;2023-04-16T01:51:36;8.50;99.90
48912;DHT22;34722;52.108;5.044;2023-04-16T01:54:02;8.50;99.90
48912;DHT22;34722;52.108;5.044;2023-04-16T01:56:28;8.50;99.90
48912;DHT22;34722;52.108;5.044;2023-04-16T01:58:54;8.50;99.90
48912;DHT22;34722;52.108;5.044;2023-04-16T02:01:19;8.50;99.90
48912;DHT22;34722;52.108;5.044;2023-04-16T02:06:10;8.50;99.90
48912;DHT22;34722;52.108;5.044;2023-04-16T02:08:36;8.50;99.90
48912;DHT22;34722;52.108;5.044;2023-04-16T02:11:08;8.50;99.90
48912;DHT22;34722;52.108;5.044;2023-04-16T02:13:34;8.50;99.90
48912;DHT22;34722;52.108;5.044;2023-04-16T02:16:06;8.50;99.90
48912;DHT22;34722;52.108;5.044;2023-04-16T02:18:39;8.60;99.90
48912;DHT22;34722;52.108;5.044;2023-04-16T02:24:33;8.60;99.90
48912;DHT22;34722;52.108;5.044;2023-04-16T02:27:21;8.60;99.90
48912;DHT22;34722;52.108;5.044;2023-04-16T02:29:47;8.60;99.90
48912;DHT22;34722;52.108;5.044;2023-04-16T02:32:13;8.60;99.90
48912;DHT22;34722;52.108;5.044;2023-04-16T02:34:39;8.60;99.90
48912;DHT22;34722;52.108;5.044;2023-04-16T02:37:04;8.60;99.90
48912;DHT22;34722;52.108;5.044;2023-04-16T02:39:30;8.60;99.90
48912;DHT22;34722;52.108;5.044;2023-04-16T02:41:56;8.60;99.90
48912;DHT22;34722;52.108;5.044;2023-04-16T02:46:51;8.70;99.90
48912;DHT22;34722;52.108;5.044;2023-04-16T02:49:17;8.60;99.90
48912;DHT22;34722;52.108;5.044;2023-04-16T02:51:45;8.60;99.90
48912;DHT22;34722;52.108;5.044;2023-04-16T02:54:14;8.60;99.90
48912;DHT22;34722;52.108;5.044;2023-04-16T02:56:44;8.60;99.90
48912;DHT22;34722;52.108;5.044;2023-04-16T02:59:11;8.60;99.90
48912;DHT22;34722;52.108;5.044;2023-04-16T03:01:47;8.60;99.90
48912;DHT22;34722;52.108;5.044;2023-04-16T03:04:20;8.60;99.90
48912;DHT22;34722;52.108;5.044;2023-04-16T03:06:47;8.60;99.90
48912;DHT22;34722;52.108;5.044;2023-04-16T03:09:16;8.60;99.90
48912;DHT22;34722;52.108;5.044;2023-04-16T03:11:44;8.60;99.90
48912;DHT22;34722;52.108;5.044;2023-04-16T03:14:10;8.60;99.90
48912;DHT22;34722;52.108;5.044;2023-04-16T03:16:43;8.50;99.90
48912;DHT22;34722;52.108;5.044;2023-04-16T03:19:26;8.60;99.90
48912;DHT22;34722;52.108;5.044;2023-04-16T03:21:58;8.50;99.90
48912;DHT22;34722;52.108;5.044;2023-04-16T03:24:34;8.50;99.90
48912;DHT22;34722;52.108;5.044;2023-04-16T03:27:04;8.50;99.90
48912;DHT22;34722;52.108;5.044;2023-04-16T03:29:30;8.60;99.90
48912;DHT22;34722;52.108;5.044;2023-04-16T03:31:59;8.60;99.90
48912;DHT22;34722;52.108;5.044;2023-04-16T03:34:24;8.60;99.90
48912;DHT22;34722;52.108;5.044;2023-04-16T03:36:51;8.60;99.90
48912;DHT22;34722;52.108;5.044;2023-04-16T03:39:16;8.50;99.90
48912;DHT22;34722;52.108;5.044;2023-04-16T03:41:42;8.50;99.90
48912;DHT22;34722;52.108;5.044;2023-04-16T03:44:08;8.50;99.90
48912;DHT22;34722;52.108;5.044;2023-04-16T03:46:33;8.50;99.90
48912;DHT22;34722;52.108;5.044;2023-04-16T03:48:59;8.50;99.90
48912;DHT22;34722;52.108;5.044;2023-04-16T03:51:25;8.50;99.90
48912;DHT22;34722;52.108;5.044;2023-04-16T03:53:59;8.50;99.90
48912;DHT22;34722;52.108;5.044;2023-04-16T03:59:25;8.50;99.90
48912;DHT22;34722;52.108;5.044;2023-04-16T04:01:54;8.50;99.90
48912;DHT22;34722;52.108;5.044;2023-04-16T04:04:22;8.50;99.90
48912;DHT22;34722;52.108;5.044;2023-04-16T04:06:48;8.50;99.90
48912;DHT22;34722;52.108;5.044;2023-04-16T04:09:16;8.50;99.90
48912;DHT22;34722;52.108;5.044;2023-04-16T04:11:44;8.50;99.90
48912;DHT22;34722;52.108;5.044;2023-04-16T04:14:10;8.50;99.90
48912;DHT22;34722;52.108;5.044;2023-04-16T04:16:36;8.50;99.90
48912;DHT22;34722;52.108;5.044;2023-04-16T04:19:08;8.50;99.90
48912;DHT22;34722;52.108;5.044;2023-04-16T04:21:42;8.50;99.90
48912;DHT22;34722;52.108;5.044;2023-04-16T04:24:10;8.50;99.90
48912;DHT22;34722;52.108;5.044;2023-04-16T04:30:06;8.50;99.90
48912;DHT22;34722;52.108;5.044;2023-04-16T04:35:56;8.50;99.90
48912;DHT22;34722;52.108;5.044;2023-04-16T04:38:22;8.50;99.90
48912;DHT22;34722;52.108;5.044;2023-04-16T04:40:52;8.50;99.90
48912;DHT22;34722;52.108;5.044;2023-04-16T04:43:18;8.60;99.90
48912;DHT22;34722;52.108;5.044;2023-04-16T04:45:45;8.60;99.90
48912;DHT22;34722;52.108;5.044;2023-04-16T04:48:11;8.50;99.90
48912;DHT22;34722;52.108;5.044;2023-04-16T04:50:37;8.50;99.90
48912;DHT22;34722;52.108;5.044;2023-04-16T04:53:02;8.60;99.90
48912;DHT22;34722;52.108;5.044;2023-04-16T04:55:37;8.50;99.90
48912;DHT22;34722;52.108;5.044;2023-04-16T04:58:12;8.60;99.90
48912;DHT22;34722;52.108;5.044;2023-04-16T05:00:59;8.60;99.90
48912;DHT22;34722;52.108;5.044;2023-04-16T05:03:30;8.60;99.90
48912;DHT22;34722;52.108;5.044;2023-04-16T05:06:01;8.60;99.90
48912;DHT22;34722;52.108;5.044;2023-04-16T05:08:37;8.60;99.90
48912;DHT22;34722;52.108;5.044;2023-04-16T05:14:12;8.60;99.90
48912;DHT22;34722;52.108;5.044;2023-04-16T05:20:26;8.60;99.90
48912;DHT22;34722;52.108;5.044;2023-04-16T05:23:14;8.60;99.90
48912;DHT22;34722;52.108;5.044;2023-04-16T05:28:16;8.60;99.90
48912;DHT22;34722;52.108;5.044;2023-04-16T05:37:41;8.60;99.90
48912;DHT22;34722;52.108;5.044;2023-04-16T05:40:12;8.70;99.90
48912;DHT22;34722;52.108;5.044;2023-04-16T05:42:39;8.70;99.90
48912;DHT22;34722;52.108;5.044;2023-04-16T05:45:36;8.70;99.90
48912;DHT22;34722;52.108;5.044;2023-04-16T05:48:16;8.70;99.90
48912;DHT22;34722;52.108;5.044;2023-04-16T05:50:52;8.70;99.90
48912;DHT22;34722;52.108;5.044;2023-04-16T05:53:26;8.70;99.90
48912;DHT22;34722;52.108;5.044;2023-04-16T05:56:09;8.70;99.90
48912;DHT22;34722;52.108;5.044;2023-04-16T05:58:47;8.80;99.90
48912;DHT22;34722;52.108;5.044;2023-04-16T06:01:13;8.70;99.90
48912;DHT22;34722;52.108;5.044;2023-04-16T06:03:53;8.70;99.90
48912;DHT22;34722;52.108;5.044;2023-04-16T06:06:32;8.70;99.90
48912;DHT22;34722;52.108;5.044;2023-04-16T06:09:21;8.70;99.90
48912;DHT22;34722;52.108;5.044;2023-04-16T06:12:13;8.70;99.90
48912;DHT22;34722;52.108;5.044;2023-04-16T06:14:42;8.70;99.90
48912;DHT22;34722;52.108;5.044;2023-04-16T06:17:08;8.70;99.90
48912;DHT22;34722;52.108;5.044;2023-04-16T06:19:45;8.70;99.90
48912;DHT22;34722;52.108;5.044;2023-04-16T06:22:17;8.70;99.90
48912;DHT22;34722;52.108;5.044;2023-04-16T06:24:47;8.70;99.90
48912;DHT22;34722;52.108;5.044;2023-04-16T06:27:40;8.80;99.90
48912;DHT22;34722;52.108;5.044;2023-04-16T06:30:33;8.80;99.90
48912;DHT22;34722;52.108;5.044;2023-04-16T06:33:14;8.80;99.90
48912;DHT22;34722;52.108;5.044;2023-04-16T06:35:41;8.80;99.90
48912;DHT22;34722;52.108;5.044;2023-04-16T06:38:06;8.80;99.90
48912;DHT22;34722;52.108;5.044;2023-04-16T06:40:32;8.80;99.90
48912;DHT22;34722;52.108;5.044;2023-04-16T06:43:01;8.80;99.90
48912;DHT22;34722;52.108;5.044;2023-04-16T06:45:46;8.80;99.90
48912;DHT22;34722;52.108;5.044;2023-04-16T06:52:31;8.90;99.90
48912;DHT22;34722;52.108;5.044;2023-04-16T06:55:43;8.90;99.90
48912;DHT22;34722;52.108;5.044;2023-04-16T07:01:31;8.80;99.90
48912;DHT22;34722;52.108;5.044;2023-04-16T07:03:58;8.90;99.90
48912;DHT22;34722;52.108;5.044;2023-04-16T07:06:24;8.80;99.90
48912;DHT22;34722;52.108;5.044;2023-04-16T07:09:12;8.90;99.90
48912;DHT22;34722;52.108;5.044;2023-04-16T07:11:38;8.90;99.90
48912;DHT22;34722;52.108;5.044;2023-04-16T07:14:04;8.90;99.90
48912;DHT22;34722;52.108;5.044;2023-04-16T07:16:29;9.00;99.90
48912;DHT22;34722;52.108;5.044;2023-04-16T07:18:55;8.90;99.90
48912;DHT22;34722;52.108;5.044;2023-04-16T07:21:21;9.00;99.90
48912;DHT22;34722;52.108;5.044;2023-04-16T07:23:47;9.00;99.90
48912;DHT22;34722;52.108;5.044;2023-04-16T07:26:12;9.00;99.90
48912;DHT22;34722;52.108;5.044;2023-04-16T07:28:38;9.00;99.90
48912;DHT22;34722;52.108;5.044;2023-04-16T07:31:04;9.10;99.90
48912;DHT22;34722;52.108;5.044;2023-04-16T07:33:33;9.10;99.90
48912;DHT22;34722;52.108;5.044;2023-04-16T07:40:32;9.10;99.90
48912;DHT22;34722;52.108;5.044;2023-04-16T07:56:52;9.20;99.90
48912;DHT22;34722;52.108;5.044;2023-04-16T07:59:19;9.20;99.90
48912;DHT22;34722;52.108;5.044;2023-04-16T08:01:45;9.10;99.90
48912;DHT22;34722;52.108;5.044;2023-04-16T08:04:11;9.10;99.90
48912;DHT22;34722;52.108;5.044;2023-04-16T08:06:38;9.20;99.90
48912;DHT22;34722;52.108;5.044;2023-04-16T08:09:06;9.20;99.90
48912;DHT22;34722;52.108;5.044;2023-04-16T08:11:32;9.20;99.90
48912;DHT22;34722;52.108;5.044;2023-04-16T08:14:05;9.20;99.90
48912;DHT22;34722;52.108;5.044;2023-04-16T08:16:32;9.20;99.90
48912;DHT22;34722;52.108;5.044;2023-04-16T08:19:01;9.30;99.90
48912;DHT22;34722;52.108;5.044;2023-04-16T08:21:29;9.30;99.90
48912;DHT22;34722;52.108;5.044;2023-04-16T08:23:56;9.40;99.90
48912;DHT22;34722;52.108;5.044;2023-04-16T08:26:21;9.40;99.90
48912;DHT22;34722;52.108;5.044;2023-04-16T08:28:50;9.40;99.90
48912;DHT22;34722;52.108;5.044;2023-04-16T08:38:01;9.50;99.90
48912;DHT22;34722;52.108;5.044;2023-04-16T08:40:28;9.50;99.90
48912;DHT22;34722;52.108;5.044;2023-04-16T08:42:57;9.40;99.90
48912;DHT22;34722;52.108;5.044;2023-04-16T08:45:25;9.50;99.90
48912;DHT22;34722;52.108;5.044;2023-04-16T08:47:52;9.40;99.90
48912;DHT22;34722;52.108;5.044;2023-04-16T08:53:05;9.50;99.90
48912;DHT22;34722;52.108;5.044;2023-04-16T08:55:48;9.50;99.90
48912;DHT22;34722;52.108;5.044;2023-04-16T09:04:35;9.50;99.90
48912;DHT22;34722;52.108;5.044;2023-04-16T09:07:03;9.50;99.90
48912;DHT22;34722;52.108;5.044;2023-04-16T09:09:30;9.60;99.90
48912;DHT22;34722;52.108;5.044;2023-04-16T09:11:56;9.60;99.90
48912;DHT22;34722;52.108;5.044;2023-04-16T09:16:57;9.80;99.90
48912;DHT22;34722;52.108;5.044;2023-04-16T09:19:28;9.90;99.90
48912;DHT22;34722;52.108;5.044;2023-04-16T09:21:54;9.90;99.90
48912;DHT22;34722;52.108;5.044;2023-04-16T09:24:21;9.90;99.90
48912;DHT22;34722;52.108;5.044;2023-04-16T09:26:47;9.80;99.90
48912;DHT22;34722;52.108;5.044;2023-04-16T09:32:04;9.80;99.90
48912;DHT22;34722;52.108;5.044;2023-04-16T09:35:01;9.90;99.90
48912;DHT22;34722;52.108;5.044;2023-04-16T09:40:07;9.90;99.90
48912;DHT22;34722;52.108;5.044;2023-04-16T09:42:42;9.90;99.90
48912;DHT22;34722;52.108;5.044;2023-04-16T09:45:18;10.00;99.90
48912;DHT22;34722;52.108;5.044;2023-04-16T09:50:20;10.00;99.90
48912;DHT22;34722;52.108;5.044;2023-04-16T09:52:49;10.10;99.90
48912;DHT22;34722;52.108;5.044;2023-04-16T09:58:00;10.10;99.90
48912;DHT22;34722;52.108;5.044;2023-04-16T10:00:28;10.10;99.90
48912;DHT22;34722;52.108;5.044;2023-04-16T10:05:32;10.10;99.90
48912;DHT22;34722;52.108;5.044;2023-04-16T10:07:59;10.10;99.90
48912;DHT22;34722;52.108;5.044;2023-04-16T10:10:26;10.10;99.90
48912;DHT22;34722;52.108;5.044;2023-04-16T10:12:56;10.20;99.90
48912;DHT22;34722;52.108;5.044;2023-04-16T10:15:26;10.10;99.90
48912;DHT22;34722;52.108;5.044;2023-04-16T10:17:52;10.20;99.90
48912;DHT22;34722;52.108;5.044;2023-04-16T10:20:21;10.20;99.90
48912;DHT22;34722;52.108;5.044;2023-04-16T10:22:54;10.20;99.90
48912;DHT22;34722;52.108;5.044;2023-04-16T10:27:51;10.30;99.90
48912;DHT22;34722;52.108;5.044;2023-04-16T10:30:17;10.40;99.90
48912;DHT22;34722;52.108;5.044;2023-04-16T10:32:44;10.40;99.90
48912;DHT22;34722;52.108;5.044;2023-04-16T10:35:14;10.30;99.90
48912;DHT22;34722;52.108;5.044;2023-04-16T10:37:41;10.40;99.90
48912;DHT22;34722;52.108;5.044;2023-04-16T11:02:28;10.40;99.90
48912;DHT22;34722;52.108;5.044;2023-04-16T11:07:36;10.70;99.90
48912;DHT22;34722;52.108;5.044;2023-04-16T11:10:06;10.80;99.90
48912;DHT22;34722;52.108;5.044;2023-04-16T11:12:59;10.80;99.90
48912;DHT22;34722;52.108;5.044;2023-04-16T11:15:50;10.70;99.90
48912;DHT22;34722;52.108;5.044;2023-04-16T11:18:48;10.70;99.90
48912;DHT22;34722;52.108;5.044;2023-04-16T11:21:15;10.70;99.90
48912;DHT22;34722;52.108;5.044;2023-04-16T11:23:45;10.70;99.90
48912;DHT22;34722;52.108;5.044;2023-04-16T11:26:27;10.80;99.90
48912;DHT22;34722;52.108;5.044;2023-04-16T11:39:10;10.90;99.90
48912;DHT22;34722;52.108;5.044;2023-04-16T11:41:53;10.90;99.90
48912;DHT22;34722;52.108;5.044;2023-04-16T11:44:26;11.00;99.90
48912;DHT22;34722;52.108;5.044;2023-04-16T11:49:33;11.10;99.90
48912;DHT22;34722;52.108;5.044;2023-04-16T11:52:28;11.10;99.90
48912;DHT22;34722;52.108;5.044;2023-04-16T11:57:48;11.20;99.90
48912;DHT22;34722;52.108;5.044;2023-04-16T12:01:13;11.30;99.90
48912;DHT22;34722;52.108;5.044;2023-04-16T12:04:27;11.20;99.90
48912;DHT22;34722;52.108;5.044;2023-04-16T12:07:12;11.40;99.90
48912;DHT22;34722;52.108;5.044;2023-04-16T12:17:33;11.40;99.90
48912;DHT22;34722;52.108;5.044;2023-04-16T12:20:07;11.40;99.90
48912;DHT22;34722;52.108;5.044;2023-04-16T12:22:45;11.70;99.90
48912;DHT22;34722;52.108;5.044;2023-04-16T12:25:13;11.80;99.90
48912;DHT22;34722;52.108;5.044;2023-04-16T12:30:17;11.70;99.90
48912;DHT22;34722;52.108;5.044;2023-04-16T12:37:54;12.10;99.90
48912;DHT22;34722;52.108;5.044;2023-04-16T12:40:20;12.10;99.90
48912;DHT22;34722;52.108;5.044;2023-04-16T12:42:46;12.30;99.90
48912;DHT22;34722;52.108;5.044;2023-04-16T12:50:28;12.40;99.90
48912;DHT22;34722;52.108;5.044;2023-04-16T12:52:57;12.60;99.90
48912;DHT22;34722;52.108;5.044;2023-04-16T12:55:24;12.70;99.90
48912;DHT22;34722;52.108;5.044;2023-04-16T12:57:50;12.70;99.90
48912;DHT22;34722;52.108;5.044;2023-04-16T13:00:19;12.80;99.90
48912;DHT22;34722;52.108;5.044;2023-04-16T13:02:45;13.00;99.90
48912;DHT22;34722;52.108;5.044;2023-04-16T13:05:11;12.90;99.90
48912;DHT22;34722;52.108;5.044;2023-04-16T13:07:38;13.00;99.90
48912;DHT22;34722;52.108;5.044;2023-04-16T13:10:05;12.90;99.90
48912;DHT22;34722;52.108;5.044;2023-04-16T13:12:31;12.70;99.90
48912;DHT22;34722;52.108;5.044;2023-04-16T13:14:57;12.60;99.90
48912;DHT22;34722;52.108;5.044;2023-04-16T13:17:23;12.30;99.90
48912;DHT22;34722;52.108;5.044;2023-04-16T13:19:49;12.20;99.90
48912;DHT22;34722;52.108;5.044;2023-04-16T13:22:15;12.20;99.90
48912;DHT22;34722;52.108;5.044;2023-04-16T13:27:09;12.50;99.90
48912;DHT22;34722;52.108;5.044;2023-04-16T13:29:35;12.80;99.90
48912;DHT22;34722;52.108;5.044;2023-04-16T13:32:01;12.90;99.90
48912;DHT22;34722;52.108;5.044;2023-04-16T13:34:27;13.10;99.90
48912;DHT22;34722;52.108;5.044;2023-04-16T13:49:43;13.70;99.90
48912;DHT22;34722;52.108;5.044;2023-04-16T13:52:09;13.40;99.90
48912;DHT22;34722;52.108;5.044;2023-04-16T13:54:35;13.30;99.90
48912;DHT22;34722;52.108;5.044;2023-04-16T13:57:01;13.20;99.90
48912;DHT22;34722;52.108;5.044;2023-04-16T13:59:27;13.30;99.90
48912;DHT22;34722;52.108;5.044;2023-04-16T14:01:53;13.20;99.90
48912;DHT22;34722;52.108;5.044;2023-04-16T14:04:22;13.20;99.90
48912;DHT22;34722;52.108;5.044;2023-04-16T14:06:49;13.00;99.90
48912;DHT22;34722;52.108;5.044;2023-04-16T14:09:15;13.00;99.90
48912;DHT22;34722;52.108;5.044;2023-04-16T14:11:40;12.90;99.90
48912;DHT22;34722;52.108;5.044;2023-04-16T14:14:37;12.90;99.90
48912;DHT22;34722;52.108;5.044;2023-04-16T14:17:08;12.80;99.90
48912;DHT22;34722;52.108;5.044;2023-04-16T14:19:40;12.70;99.90
48912;DHT22;34722;52.108;5.044;2023-04-16T14:22:21;12.80;99.90
48912;DHT22;34722;52.108;5.044;2023-04-16T14:27:27;12.80;99.90
48912;DHT22;34722;52.108;5.044;2023-04-16T14:29:58;12.80;99.90
48912;DHT22;34722;52.108;5.044;2023-04-16T14:36:08;12.70;99.90
48912;DHT22;34722;52.108;5.044;2023-04-16T14:38:52;12.90;99.90
48912;DHT22;34722;52.108;5.044;2023-04-16T14:41:33;13.00;99.90
48912;DHT22;34722;52.108;5.044;2023-04-16T14:43:59;12.90;99.90
48912;DHT22;34722;52.108;5.044;2023-04-16T14:56:51;12.70;99.90
48912;DHT22;34722;52.108;5.044;2023-04-16T15:50:34;11.80;99.90
48912;DHT22;34722;52.108;5.044;2023-04-16T15:53:28;11.70;99.90
48912;DHT22;34722;52.108;5.044;2023-04-16T15:55:59;11.70;99.90
48912;DHT22;34722;52.108;5.044;2023-04-16T15:58:30;11.70;99.90
48912;DHT22;34722;52.108;5.044;2023-04-16T16:01:03;11.60;99.90
48912;DHT22;34722;52.108;5.044;2023-04-16T16:03:30;11.70;99.90
48912;DHT22;34722;52.108;5.044;2023-04-16T16:06:00;11.80;99.90
48912;DHT22;34722;52.108;5.044;2023-04-16T16:08:33;11.80;99.90
48912;DHT22;34722;52.108;5.044;2023-04-16T16:11:08;11.90;99.90
48912;DHT22;34722;52.108;5.044;2023-04-16T16:13:34;12.00;99.90
48912;DHT22;34722;52.108;5.044;2023-04-16T16:16:07;12.00;99.90
48912;DHT22;34722;52.108;5.044;2023-04-16T16:18:38;12.00;99.90
48912;DHT22;34722;52.108;5.044;2023-04-16T16:21:07;12.00;99.90
48912;DHT22;34722;52.108;5.044;2023-04-16T16:23:33;12.00;99.90
48912;DHT22;34722;52.108;5.044;2023-04-16T16:29:04;11.90;99.90
48912;DHT22;34722;52.108;5.044;2023-04-16T16:31:31;11.90;99.90
48912;DHT22;34722;52.108;5.044;2023-04-16T16:33:58;11.80;99.90
48912;DHT22;34722;52.108;5.044;2023-04-16T20:33:56;9.40;99.90
48912;DHT22;34722;52.108;5.044;2023-04-16T21:04:28;9.30;99.90
48912;DHT22;34722;52.108;5.044;2023-04-16T21:07:21;9.30;99.90
48912;DHT22;34722;52.108;5.044;2023-04-16T21:09:48;9.30;99.90
48912;DHT22;34722;52.108;5.044;2023-04-16T21:12:27;9.20;99.90
